sensor_id;sensor_type;location;lat;lon;timestamp;temperature;humidity
68701;DHT22;55682;51.114;5.882;2023-12-29T00:00:19;12.28;69.72
68701;DHT22;55682;51.114;5.882;2023-12-29T00:02:44;12.42;69.30
68701;DHT22;55682;51.114;5.882;2023-12-29T00:05:10;12.36;69.55
68701;DHT22;55682;51.114;5.882;2023-12-29T00:07:35;12.37;69.47
68701;DHT22;55682;51.114;5.882;2023-12-29T00:10:01;12.34;69.69
68701;DHT22;55682;51.114;5.882;2023-12-29T00:12:27;12.27;70.03
68701;DHT22;55682;51.114;5.882;2023-12-29T00:14:52;12.34;69.60
68701;DHT22;55682;51.114;5.882;2023-12-29T00:17:18;12.31;69.76
68701;DHT22;55682;51.114;5.882;2023-12-29T00:19:43;12.34;69.82
68701;DHT22;55682;51.114;5.882;2023-12-29T00:22:09;12.32;69.78
68701;DHT22;55682;51.114;5.882;2023-12-29T00:24:34;12.23;70.06
68701;DHT22;55682;51.114;5.882;2023-12-29T00:27:01;12.32;69.84
68701;DHT22;55682;51.114;5.882;2023-12-29T00:29:27;12.19;70.23
68701;DHT22;55682;51.114;5.882;2023-12-29T00:31:57;12.11;70.71
68701;DHT22;55682;51.114;5.882;2023-12-29T00:34:23;12.21;70.25
68701;DHT22;55682;51.114;5.882;2023-12-29T00:36:48;12.16;70.53
68701;DHT22;55682;51.114;5.882;2023-12-29T00:39:14;12.14;70.49
68701;DHT22;55682;51.114;5.882;2023-12-29T00:41:40;12.17;70.49
68701;DHT22;55682;51.114;5.882;2023-12-29T00:44:07;12.18;70.39
68701;DHT22;55682;51.114;5.882;2023-12-29T00:46:33;12.13;70.56
68701;DHT22;55682;51.114;5.882;2023-12-29T00:49:00;12.20;70.48
68701;DHT22;55682;51.114;5.882;2023-12-29T00:51:27;12.25;70.31
68701;DHT22;55682;51.114;5.882;2023-12-29T00:53:52;12.03;71.01
68701;DHT22;55682;51.114;5.882;2023-12-29T00:56:18;12.12;70.89
68701;DHT22;55682;51.114;5.882;2023-12-29T00:58:44;12.13;70.95
68701;DHT22;55682;51.114;5.882;2023-12-29T01:01:10;12.30;70.35
68701;DHT22;55682;51.114;5.882;2023-12-29T01:03:37;12.22;70.53
68701;DHT22;55682;51.114;5.882;2023-12-29T01:06:03;12.26;70.31
68701;DHT22;55682;51.114;5.882;2023-12-29T01:08:28;12.27;70.35
68701;DHT22;55682;51.114;5.882;2023-12-29T01:10:54;12.21;70.65
68701;DHT22;55682;51.114;5.882;2023-12-29T01:13:20;12.03;71.44
68701;DHT22;55682;51.114;5.882;2023-12-29T01:15:45;12.04;71.46
68701;DHT22;55682;51.114;5.882;2023-12-29T01:18:11;12.03;71.50
68701;DHT22;55682;51.114;5.882;2023-12-29T01:20:37;12.06;71.54
68701;DHT22;55682;51.114;5.882;2023-12-29T01:23:05;12.11;71.03
68701;DHT22;55682;51.114;5.882;2023-12-29T01:25:31;12.17;70.93
68701;DHT22;55682;51.114;5.882;2023-12-29T01:27:56;12.02;71.66
68701;DHT22;55682;51.114;5.882;2023-12-29T01:30:23;12.08;71.44
68701;DHT22;55682;51.114;5.882;2023-12-29T01:32:48;12.15;71.20
68701;DHT22;55682;51.114;5.882;2023-12-29T01:35:14;12.07;71.83
68701;DHT22;55682;51.114;5.882;2023-12-29T01:37:40;12.02;72.16
68701;DHT22;55682;51.114;5.882;2023-12-29T01:40:06;12.21;71.40
68701;DHT22;55682;51.114;5.882;2023-12-29T01:42:31;12.17;72.00
68701;DHT22;55682;51.114;5.882;2023-12-29T01:44:57;12.23;71.94
68701;DHT22;55682;51.114;5.882;2023-12-29T01:47:23;12.04;72.88
68701;DHT22;55682;51.114;5.882;2023-12-29T01:49:50;12.10;73.07
68701;DHT22;55682;51.114;5.882;2023-12-29T01:52:17;12.12;72.66
68701;DHT22;55682;51.114;5.882;2023-12-29T01:54:46;12.04;72.98
68701;DHT22;55682;51.114;5.882;2023-12-29T01:57:14;11.98;73.25
68701;DHT22;55682;51.114;5.882;2023-12-29T01:59:40;12.08;73.10
68701;DHT22;55682;51.114;5.882;2023-12-29T02:02:07;12.04;73.50
68701;DHT22;55682;51.114;5.882;2023-12-29T02:04:33;12.04;73.56
68701;DHT22;55682;51.114;5.882;2023-12-29T02:06:58;12.08;73.41
68701;DHT22;55682;51.114;5.882;2023-12-29T02:09:25;12.06;73.64
68701;DHT22;55682;51.114;5.882;2023-12-29T02:11:51;12.10;73.32
68701;DHT22;55682;51.114;5.882;2023-12-29T02:14:18;11.92;74.11
68701;DHT22;55682;51.114;5.882;2023-12-29T02:17:01;12.10;73.47
68701;DHT22;55682;51.114;5.882;2023-12-29T02:19:38;12.14;73.27
68701;DHT22;55682;51.114;5.882;2023-12-29T02:22:05;12.10;73.42
68701;DHT22;55682;51.114;5.882;2023-12-29T02:24:33;12.13;73.44
68701;DHT22;55682;51.114;5.882;2023-12-29T02:30:02;12.19;72.51
68701;DHT22;55682;51.114;5.882;2023-12-29T02:32:33;12.28;72.30
68701;DHT22;55682;51.114;5.882;2023-12-29T02:35:02;12.25;72.41
68701;DHT22;55682;51.114;5.882;2023-12-29T02:37:29;12.23;72.43
68701;DHT22;55682;51.114;5.882;2023-12-29T02:39:58;12.30;71.99
68701;DHT22;55682;51.114;5.882;2023-12-29T02:42:24;12.36;71.85
68701;DHT22;55682;51.114;5.882;2023-12-29T02:44:49;12.31;72.13
68701;DHT22;55682;51.114;5.882;2023-12-29T02:47:15;12.22;72.44
68701;DHT22;55682;51.114;5.882;2023-12-29T02:49:42;12.37;71.77
68701;DHT22;55682;51.114;5.882;2023-12-29T02:52:08;12.26;72.23
68701;DHT22;55682;51.114;5.882;2023-12-29T02:54:34;12.19;72.41
68701;DHT22;55682;51.114;5.882;2023-12-29T02:56:59;12.26;72.29
68701;DHT22;55682;51.114;5.882;2023-12-29T02:59:25;12.18;72.43
68701;DHT22;55682;51.114;5.882;2023-12-29T03:01:50;12.38;71.57
68701;DHT22;55682;51.114;5.882;2023-12-29T03:04:16;12.20;72.30
68701;DHT22;55682;51.114;5.882;2023-12-29T03:06:42;12.26;72.11
68701;DHT22;55682;51.114;5.882;2023-12-29T03:09:07;12.25;72.23
68701;DHT22;55682;51.114;5.882;2023-12-29T03:11:33;12.23;72.13
68701;DHT22;55682;51.114;5.882;2023-12-29T03:13:58;12.28;71.58
68701;DHT22;55682;51.114;5.882;2023-12-29T03:16:24;12.35;71.39
68701;DHT22;55682;51.114;5.882;2023-12-29T03:18:50;12.36;71.32
68701;DHT22;55682;51.114;5.882;2023-12-29T03:21:15;12.40;71.12
68701;DHT22;55682;51.114;5.882;2023-12-29T03:23:42;12.42;71.03
68701;DHT22;55682;51.114;5.882;2023-12-29T03:26:07;12.36;71.33
68701;DHT22;55682;51.114;5.882;2023-12-29T03:28:33;12.34;71.38
68701;DHT22;55682;51.114;5.882;2023-12-29T03:30:58;12.44;71.14
68701;DHT22;55682;51.114;5.882;2023-12-29T03:33:24;12.50;70.84
68701;DHT22;55682;51.114;5.882;2023-12-29T03:35:49;12.42;71.24
68701;DHT22;55682;51.114;5.882;2023-12-29T03:38:15;12.42;71.58
68701;DHT22;55682;51.114;5.882;2023-12-29T03:40:41;12.40;71.99
68701;DHT22;55682;51.114;5.882;2023-12-29T03:43:06;12.57;71.45
68701;DHT22;55682;51.114;5.882;2023-12-29T03:45:33;12.37;72.67
68701;DHT22;55682;51.114;5.882;2023-12-29T03:47:58;12.22;73.52
68701;DHT22;55682;51.114;5.882;2023-12-29T03:50:24;12.15;73.68
68701;DHT22;55682;51.114;5.882;2023-12-29T03:52:49;12.22;73.07
68701;DHT22;55682;51.114;5.882;2023-12-29T03:55:15;12.10;73.33
68701;DHT22;55682;51.114;5.882;2023-12-29T03:57:44;12.13;72.60
68701;DHT22;55682;51.114;5.882;2023-12-29T04:00:14;12.13;72.61
68701;DHT22;55682;51.114;5.882;2023-12-29T04:02:40;12.16;72.42
68701;DHT22;55682;51.114;5.882;2023-12-29T04:05:08;12.13;72.38
68701;DHT22;55682;51.114;5.882;2023-12-29T04:07:33;12.27;71.84
68701;DHT22;55682;51.114;5.882;2023-12-29T04:09:59;12.19;72.34
68701;DHT22;55682;51.114;5.882;2023-12-29T04:12:24;12.19;72.39
68701;DHT22;55682;51.114;5.882;2023-12-29T04:14:50;12.17;72.48
68701;DHT22;55682;51.114;5.882;2023-12-29T04:17:16;12.05;72.94
68701;DHT22;55682;51.114;5.882;2023-12-29T04:19:42;12.25;72.14
68701;DHT22;55682;51.114;5.882;2023-12-29T04:22:07;12.03;73.08
68701;DHT22;55682;51.114;5.882;2023-12-29T04:24:33;12.11;72.92
68701;DHT22;55682;51.114;5.882;2023-12-29T04:27:01;12.11;73.01
68701;DHT22;55682;51.114;5.882;2023-12-29T04:29:27;12.10;72.80
68701;DHT22;55682;51.114;5.882;2023-12-29T04:31:53;12.08;72.94
68701;DHT22;55682;51.114;5.882;2023-12-29T04:34:19;11.98;73.44
68701;DHT22;55682;51.114;5.882;2023-12-29T04:36:44;12.01;73.21
68701;DHT22;55682;51.114;5.882;2023-12-29T04:39:10;11.98;73.26
68701;DHT22;55682;51.114;5.882;2023-12-29T04:41:35;12.10;72.85
68701;DHT22;55682;51.114;5.882;2023-12-29T04:44:03;11.87;73.61
68701;DHT22;55682;51.114;5.882;2023-12-29T04:46:28;11.88;73.64
68701;DHT22;55682;51.114;5.882;2023-12-29T04:48:54;11.98;73.41
68701;DHT22;55682;51.114;5.882;2023-12-29T04:51:20;11.87;73.67
68701;DHT22;55682;51.114;5.882;2023-12-29T04:53:46;11.94;73.25
68701;DHT22;55682;51.114;5.882;2023-12-29T04:56:11;12.05;72.83
68701;DHT22;55682;51.114;5.882;2023-12-29T04:58:37;12.00;72.99
68701;DHT22;55682;51.114;5.882;2023-12-29T05:01:05;11.85;73.67
68701;DHT22;55682;51.114;5.882;2023-12-29T05:03:30;11.82;73.94
68701;DHT22;55682;51.114;5.882;2023-12-29T05:05:56;11.92;73.53
68701;DHT22;55682;51.114;5.882;2023-12-29T05:08:22;11.90;73.55
68701;DHT22;55682;51.114;5.882;2023-12-29T05:10:48;11.86;73.60
68701;DHT22;55682;51.114;5.882;2023-12-29T05:13:13;11.73;74.09
68701;DHT22;55682;51.114;5.882;2023-12-29T05:15:39;11.76;73.97
68701;DHT22;55682;51.114;5.882;2023-12-29T05:18:04;11.76;74.01
68701;DHT22;55682;51.114;5.882;2023-12-29T05:20:31;11.76;74.17
68701;DHT22;55682;51.114;5.882;2023-12-29T05:22:56;11.76;74.10
68701;DHT22;55682;51.114;5.882;2023-12-29T05:25:22;11.77;74.17
68701;DHT22;55682;51.114;5.882;2023-12-29T05:27:50;11.70;74.41
68701;DHT22;55682;51.114;5.882;2023-12-29T05:30:15;11.87;73.67
68701;DHT22;55682;51.114;5.882;2023-12-29T05:32:41;11.86;73.67
68701;DHT22;55682;51.114;5.882;2023-12-29T05:35:07;11.83;73.77
68701;DHT22;55682;51.114;5.882;2023-12-29T05:37:33;11.75;74.26
68701;DHT22;55682;51.114;5.882;2023-12-29T05:39:59;11.61;74.78
68701;DHT22;55682;51.114;5.882;2023-12-29T05:42:24;11.64;74.65
68701;DHT22;55682;51.114;5.882;2023-12-29T05:44:50;11.71;74.23
68701;DHT22;55682;51.114;5.882;2023-12-29T05:47:17;11.59;74.95
68701;DHT22;55682;51.114;5.882;2023-12-29T05:49:43;11.57;74.89
68701;DHT22;55682;51.114;5.882;2023-12-29T05:52:09;11.72;74.25
68701;DHT22;55682;51.114;5.882;2023-12-29T05:54:35;11.82;74.15
68701;DHT22;55682;51.114;5.882;2023-12-29T05:57:01;11.92;73.59
68701;DHT22;55682;51.114;5.882;2023-12-29T05:59:27;11.70;74.35
68701;DHT22;55682;51.114;5.882;2023-12-29T06:01:53;11.77;74.24
68701;DHT22;55682;51.114;5.882;2023-12-29T06:04:18;11.83;73.86
68701;DHT22;55682;51.114;5.882;2023-12-29T06:06:44;11.70;74.72
68701;DHT22;55682;51.114;5.882;2023-12-29T06:09:11;11.78;74.19
68701;DHT22;55682;51.114;5.882;2023-12-29T06:11:36;11.84;73.96
68701;DHT22;55682;51.114;5.882;2023-12-29T06:14:03;11.88;73.75
68701;DHT22;55682;51.114;5.882;2023-12-29T06:16:29;11.89;73.83
68701;DHT22;55682;51.114;5.882;2023-12-29T06:18:56;11.91;73.98
68701;DHT22;55682;51.114;5.882;2023-12-29T06:21:22;11.90;73.94
68701;DHT22;55682;51.114;5.882;2023-12-29T06:23:48;11.93;73.96
68701;DHT22;55682;51.114;5.882;2023-12-29T06:26:17;11.78;74.67
68701;DHT22;55682;51.114;5.882;2023-12-29T06:28:44;11.77;74.91
68701;DHT22;55682;51.114;5.882;2023-12-29T06:31:11;11.99;74.29
68701;DHT22;55682;51.114;5.882;2023-12-29T06:33:40;12.05;74.14
68701;DHT22;55682;51.114;5.882;2023-12-29T06:36:06;11.87;74.67
68701;DHT22;55682;51.114;5.882;2023-12-29T06:38:32;12.05;74.31
68701;DHT22;55682;51.114;5.882;2023-12-29T06:41:03;12.10;74.19
68701;DHT22;55682;51.114;5.882;2023-12-29T06:43:32;12.19;73.73
68701;DHT22;55682;51.114;5.882;2023-12-29T06:45:58;12.15;73.99
68701;DHT22;55682;51.114;5.882;2023-12-29T06:48:23;12.00;74.93
68701;DHT22;55682;51.114;5.882;2023-12-29T06:50:49;11.93;75.79
68701;DHT22;55682;51.114;5.882;2023-12-29T06:53:15;12.03;75.68
68701;DHT22;55682;51.114;5.882;2023-12-29T06:55:40;11.73;77.31
68701;DHT22;55682;51.114;5.882;2023-12-29T06:58:07;11.74;77.70
68701;DHT22;55682;51.114;5.882;2023-12-29T07:00:33;11.81;77.53
68701;DHT22;55682;51.114;5.882;2023-12-29T07:03:00;11.62;78.66
68701;DHT22;55682;51.114;5.882;2023-12-29T07:05:26;11.44;79.37
68701;DHT22;55682;51.114;5.882;2023-12-29T07:07:52;11.52;79.72
68701;DHT22;55682;51.114;5.882;2023-12-29T07:10:17;11.71;78.79
68701;DHT22;55682;51.114;5.882;2023-12-29T07:12:43;11.74;79.30
68701;DHT22;55682;51.114;5.882;2023-12-29T07:15:09;11.66;79.96
68701;DHT22;55682;51.114;5.882;2023-12-29T07:17:35;11.48;80.84
68701;DHT22;55682;51.114;5.882;2023-12-29T07:20:00;11.36;82.57
68701;DHT22;55682;51.114;5.882;2023-12-29T07:22:26;11.47;81.68
68701;DHT22;55682;51.114;5.882;2023-12-29T07:24:52;11.25;83.13
68701;DHT22;55682;51.114;5.882;2023-12-29T07:27:18;11.17;83.76
68701;DHT22;55682;51.114;5.882;2023-12-29T07:29:44;11.33;82.76
68701;DHT22;55682;51.114;5.882;2023-12-29T07:32:09;11.23;83.35
68701;DHT22;55682;51.114;5.882;2023-12-29T07:34:35;11.18;83.53
68701;DHT22;55682;51.114;5.882;2023-12-29T07:37:01;11.17;83.81
68701;DHT22;55682;51.114;5.882;2023-12-29T07:39:27;11.19;84.13
68701;DHT22;55682;51.114;5.882;2023-12-29T07:41:52;11.19;83.90
68701;DHT22;55682;51.114;5.882;2023-12-29T07:44:18;11.09;84.87
68701;DHT22;55682;51.114;5.882;2023-12-29T07:46:44;11.20;84.72
68701;DHT22;55682;51.114;5.882;2023-12-29T07:49:10;11.18;84.93
68701;DHT22;55682;51.114;5.882;2023-12-29T07:51:45;11.10;85.62
68701;DHT22;55682;51.114;5.882;2023-12-29T07:54:11;11.02;86.05
68701;DHT22;55682;51.114;5.882;2023-12-29T07:56:37;11.09;86.00
68701;DHT22;55682;51.114;5.882;2023-12-29T07:59:03;10.94;86.81
68701;DHT22;55682;51.114;5.882;2023-12-29T08:01:29;10.88;87.59
68701;DHT22;55682;51.114;5.882;2023-12-29T08:03:54;10.98;87.08
68701;DHT22;55682;51.114;5.882;2023-12-29T08:06:20;11.02;86.55
68701;DHT22;55682;51.114;5.882;2023-12-29T08:08:46;10.99;86.96
68701;DHT22;55682;51.114;5.882;2023-12-29T08:11:15;10.94;87.36
68701;DHT22;55682;51.114;5.882;2023-12-29T08:13:44;10.94;87.32
68701;DHT22;55682;51.114;5.882;2023-12-29T08:16:10;10.94;87.40
68701;DHT22;55682;51.114;5.882;2023-12-29T08:18:36;11.04;86.96
68701;DHT22;55682;51.114;5.882;2023-12-29T08:21:02;10.90;88.02
68701;DHT22;55682;51.114;5.882;2023-12-29T08:23:28;11.07;87.51
68701;DHT22;55682;51.114;5.882;2023-12-29T08:25:55;10.97;87.89
68701;DHT22;55682;51.114;5.882;2023-12-29T08:28:21;11.02;87.71
68701;DHT22;55682;51.114;5.882;2023-12-29T08:30:46;10.95;87.99
68701;DHT22;55682;51.114;5.882;2023-12-29T08:33:12;10.84;89.09
68701;DHT22;55682;51.114;5.882;2023-12-29T08:35:43;10.83;89.31
68701;DHT22;55682;51.114;5.882;2023-12-29T08:38:09;10.90;88.81
68701;DHT22;55682;51.114;5.882;2023-12-29T08:40:35;10.98;88.64
68701;DHT22;55682;51.114;5.882;2023-12-29T08:43:01;10.97;88.18
68701;DHT22;55682;51.114;5.882;2023-12-29T08:45:27;10.98;88.37
68701;DHT22;55682;51.114;5.882;2023-12-29T08:47:53;10.89;88.83
68701;DHT22;55682;51.114;5.882;2023-12-29T08:50:19;11.04;88.60
68701;DHT22;55682;51.114;5.882;2023-12-29T08:52:45;11.18;87.92
68701;DHT22;55682;51.114;5.882;2023-12-29T08:55:10;11.17;88.02
68701;DHT22;55682;51.114;5.882;2023-12-29T08:57:36;11.10;88.38
68701;DHT22;55682;51.114;5.882;2023-12-29T09:00:02;11.19;88.16
68701;DHT22;55682;51.114;5.882;2023-12-29T09:02:28;11.13;88.38
68701;DHT22;55682;51.114;5.882;2023-12-29T09:04:53;11.20;88.37
68701;DHT22;55682;51.114;5.882;2023-12-29T09:07:19;11.24;88.37
68701;DHT22;55682;51.114;5.882;2023-12-29T09:09:44;11.15;88.70
68701;DHT22;55682;51.114;5.882;2023-12-29T09:12:10;11.05;89.67
68701;DHT22;55682;51.114;5.882;2023-12-29T09:14:36;11.11;89.32
68701;DHT22;55682;51.114;5.882;2023-12-29T09:17:01;11.14;89.41
68701;DHT22;55682;51.114;5.882;2023-12-29T09:19:27;11.16;89.16
68701;DHT22;55682;51.114;5.882;2023-12-29T09:21:53;11.11;89.64
68701;DHT22;55682;51.114;5.882;2023-12-29T09:24:18;11.04;90.18
68701;DHT22;55682;51.114;5.882;2023-12-29T09:26:44;11.01;90.37
68701;DHT22;55682;51.114;5.882;2023-12-29T09:29:10;11.14;89.95
68701;DHT22;55682;51.114;5.882;2023-12-29T09:31:36;11.22;89.68
68701;DHT22;55682;51.114;5.882;2023-12-29T09:34:02;11.24;89.64
68701;DHT22;55682;51.114;5.882;2023-12-29T09:36:28;11.34;89.47
68701;DHT22;55682;51.114;5.882;2023-12-29T09:38:53;11.45;88.96
68701;DHT22;55682;51.114;5.882;2023-12-29T09:41:22;11.53;88.51
68701;DHT22;55682;51.114;5.882;2023-12-29T09:43:49;11.49;88.70
68701;DHT22;55682;51.114;5.882;2023-12-29T09:46:21;11.58;87.95
68701;DHT22;55682;51.114;5.882;2023-12-29T09:48:47;11.57;88.02
68701;DHT22;55682;51.114;5.882;2023-12-29T09:51:15;11.60;87.60
68701;DHT22;55682;51.114;5.882;2023-12-29T09:53:42;11.47;88.57
68701;DHT22;55682;51.114;5.882;2023-12-29T09:56:08;11.48;88.70
68701;DHT22;55682;51.114;5.882;2023-12-29T09:58:37;11.52;88.80
68701;DHT22;55682;51.114;5.882;2023-12-29T10:01:04;11.54;88.51
68701;DHT22;55682;51.114;5.882;2023-12-29T10:03:30;11.64;88.09
68701;DHT22;55682;51.114;5.882;2023-12-29T10:06:00;11.76;88.04
68701;DHT22;55682;51.114;5.882;2023-12-29T10:08:27;11.79;87.94
68701;DHT22;55682;51.114;5.882;2023-12-29T10:10:55;11.89;87.70
68701;DHT22;55682;51.114;5.882;2023-12-29T10:13:23;12.02;87.23
68701;DHT22;55682;51.114;5.882;2023-12-29T10:16:13;12.07;85.39
68701;DHT22;55682;51.114;5.882;2023-12-29T10:19:18;12.16;84.08
68701;DHT22;55682;51.114;5.882;2023-12-29T10:21:48;12.30;82.79
68701;DHT22;55682;51.114;5.882;2023-12-29T10:24:20;12.23;81.93
68701;DHT22;55682;51.114;5.882;2023-12-29T10:26:47;12.29;82.10
68701;DHT22;55682;51.114;5.882;2023-12-29T10:29:12;12.29;82.17
68701;DHT22;55682;51.114;5.882;2023-12-29T10:31:38;12.38;82.21
68701;DHT22;55682;51.114;5.882;2023-12-29T10:34:21;12.47;82.16
68701;DHT22;55682;51.114;5.882;2023-12-29T10:36:55;12.47;82.05
68701;DHT22;55682;51.114;5.882;2023-12-29T10:39:21;12.34;83.04
68701;DHT22;55682;51.114;5.882;2023-12-29T10:41:46;12.46;83.13
68701;DHT22;55682;51.114;5.882;2023-12-29T10:44:12;12.50;82.99
68701;DHT22;55682;51.114;5.882;2023-12-29T10:46:38;12.56;83.05
68701;DHT22;55682;51.114;5.882;2023-12-29T10:49:11;12.44;84.01
68701;DHT22;55682;51.114;5.882;2023-12-29T10:51:38;12.40;84.31
68701;DHT22;55682;51.114;5.882;2023-12-29T10:54:04;12.33;84.67
68701;DHT22;55682;51.114;5.882;2023-12-29T10:56:33;12.11;85.61
68701;DHT22;55682;51.114;5.882;2023-12-29T10:59:03;12.10;85.92
68701;DHT22;55682;51.114;5.882;2023-12-29T11:01:32;12.10;86.42
68701;DHT22;55682;51.114;5.882;2023-12-29T11:03:59;12.12;85.85
68701;DHT22;55682;51.114;5.882;2023-12-29T11:06:27;12.04;86.42
68701;DHT22;55682;51.114;5.882;2023-12-29T11:08:53;12.07;86.64
68701;DHT22;55682;51.114;5.882;2023-12-29T11:11:20;12.08;86.99
68701;DHT22;55682;51.114;5.882;2023-12-29T11:13:49;12.10;86.38
68701;DHT22;55682;51.114;5.882;2023-12-29T11:16:16;12.10;86.52
68701;DHT22;55682;51.114;5.882;2023-12-29T11:18:43;12.07;86.75
68701;DHT22;55682;51.114;5.882;2023-12-29T11:21:10;12.11;86.61
68701;DHT22;55682;51.114;5.882;2023-12-29T11:23:36;12.14;86.78
68701;DHT22;55682;51.114;5.882;2023-12-29T11:26:03;12.26;85.95
68701;DHT22;55682;51.114;5.882;2023-12-29T11:28:29;12.30;85.28
68701;DHT22;55682;51.114;5.882;2023-12-29T11:30:55;12.41;84.74
68701;DHT22;55682;51.114;5.882;2023-12-29T11:33:27;12.29;85.03
68701;DHT22;55682;51.114;5.882;2023-12-29T11:36:23;12.25;84.90
68701;DHT22;55682;51.114;5.882;2023-12-29T11:41:37;12.31;84.73
68701;DHT22;55682;51.114;5.882;2023-12-29T11:44:03;12.31;85.16
68701;DHT22;55682;51.114;5.882;2023-12-29T11:46:47;12.43;85.14
68701;DHT22;55682;51.114;5.882;2023-12-29T11:49:13;12.52;84.19
68701;DHT22;55682;51.114;5.882;2023-12-29T11:51:46;12.55;83.46
68701;DHT22;55682;51.114;5.882;2023-12-29T11:54:23;12.57;84.05
68701;DHT22;55682;51.114;5.882;2023-12-29T11:56:49;12.53;83.26
68701;DHT22;55682;51.114;5.882;2023-12-29T11:59:26;12.63;82.89
68701;DHT22;55682;51.114;5.882;2023-12-29T12:01:58;12.47;83.74
68701;DHT22;55682;51.114;5.882;2023-12-29T12:04:43;12.57;83.74
68701;DHT22;55682;51.114;5.882;2023-12-29T12:12:55;12.13;86.27
68701;DHT22;55682;51.114;5.882;2023-12-29T12:17:55;12.18;86.64
68701;DHT22;55682;51.114;5.882;2023-12-29T12:20:20;12.08;87.22
68701;DHT22;55682;51.114;5.882;2023-12-29T12:22:51;12.16;87.48
68701;DHT22;55682;51.114;5.882;2023-12-29T12:25:22;12.13;87.14
68701;DHT22;55682;51.114;5.882;2023-12-29T12:27:47;12.10;87.03
68701;DHT22;55682;51.114;5.882;2023-12-29T12:30:18;12.21;86.38
68701;DHT22;55682;51.114;5.882;2023-12-29T12:32:44;12.28;86.00
68701;DHT22;55682;51.114;5.882;2023-12-29T12:35:15;12.36;85.31
68701;DHT22;55682;51.114;5.882;2023-12-29T12:37:42;12.19;85.92
68701;DHT22;55682;51.114;5.882;2023-12-29T12:40:09;12.28;84.99
68701;DHT22;55682;51.114;5.882;2023-12-29T12:42:39;12.37;84.51
68701;DHT22;55682;51.114;5.882;2023-12-29T12:45:20;12.36;84.14
68701;DHT22;55682;51.114;5.882;2023-12-29T12:47:54;12.31;83.32
68701;DHT22;55682;51.114;5.882;2023-12-29T12:50:25;12.50;83.07
68701;DHT22;55682;51.114;5.882;2023-12-29T12:52:50;12.48;82.59
68701;DHT22;55682;51.114;5.882;2023-12-29T12:55:18;12.48;82.90
68701;DHT22;55682;51.114;5.882;2023-12-29T12:57:45;12.51;82.36
68701;DHT22;55682;51.114;5.882;2023-12-29T13:00:11;12.56;82.03
68701;DHT22;55682;51.114;5.882;2023-12-29T13:02:38;12.48;82.18
68701;DHT22;55682;51.114;5.882;2023-12-29T13:05:04;12.46;81.97
68701;DHT22;55682;51.114;5.882;2023-12-29T13:07:34;12.58;81.90
68701;DHT22;55682;51.114;5.882;2023-12-29T13:10:01;12.52;82.23
68701;DHT22;55682;51.114;5.882;2023-12-29T13:12:27;12.61;81.52
68701;DHT22;55682;51.114;5.882;2023-12-29T13:14:53;12.58;81.62
68701;DHT22;55682;51.114;5.882;2023-12-29T13:17:19;12.47;81.64
68701;DHT22;55682;51.114;5.882;2023-12-29T13:19:56;12.47;81.67
68701;DHT22;55682;51.114;5.882;2023-12-29T13:22:23;12.35;82.33
68701;DHT22;55682;51.114;5.882;2023-12-29T13:24:48;12.33;82.75
68701;DHT22;55682;51.114;5.882;2023-12-29T13:27:14;12.36;82.92
68701;DHT22;55682;51.114;5.882;2023-12-29T13:29:42;12.32;82.64
68701;DHT22;55682;51.114;5.882;2023-12-29T13:32:15;12.26;83.16
68701;DHT22;55682;51.114;5.882;2023-12-29T13:35:03;12.16;83.87
68701;DHT22;55682;51.114;5.882;2023-12-29T13:37:49;12.21;83.62
68701;DHT22;55682;51.114;5.882;2023-12-29T13:43:02;12.18;83.45
68701;DHT22;55682;51.114;5.882;2023-12-29T13:45:30;12.13;83.72
68701;DHT22;55682;51.114;5.882;2023-12-29T13:47:58;12.10;83.73
68701;DHT22;55682;51.114;5.882;2023-12-29T13:50:25;12.10;83.62
68701;DHT22;55682;51.114;5.882;2023-12-29T13:52:51;12.02;83.71
68701;DHT22;55682;51.114;5.882;2023-12-29T13:55:26;11.90;83.58
68701;DHT22;55682;51.114;5.882;2023-12-29T13:57:52;11.84;83.97
68701;DHT22;55682;51.114;5.882;2023-12-29T14:00:23;11.81;84.13
68701;DHT22;55682;51.114;5.882;2023-12-29T14:03:01;11.76;84.29
68701;DHT22;55682;51.114;5.882;2023-12-29T14:05:55;11.79;84.19
68701;DHT22;55682;51.114;5.882;2023-12-29T14:08:33;11.84;84.16
68701;DHT22;55682;51.114;5.882;2023-12-29T14:11:00;11.86;84.15
68701;DHT22;55682;51.114;5.882;2023-12-29T14:13:26;11.83;84.51
68701;DHT22;55682;51.114;5.882;2023-12-29T14:15:52;11.72;85.55
68701;DHT22;55682;51.114;5.882;2023-12-29T14:20:46;11.67;86.02
68701;DHT22;55682;51.114;5.882;2023-12-29T14:23:13;11.71;86.06
68701;DHT22;55682;51.114;5.882;2023-12-29T14:25:39;11.75;86.45
68701;DHT22;55682;51.114;5.882;2023-12-29T14:28:18;11.73;86.47
68701;DHT22;55682;51.114;5.882;2023-12-29T14:30:45;11.67;87.16
68701;DHT22;55682;51.114;5.882;2023-12-29T14:33:11;11.79;87.00
68701;DHT22;55682;51.114;5.882;2023-12-29T14:35:36;11.88;86.81
68701;DHT22;55682;51.114;5.882;2023-12-29T14:38:03;11.93;86.55
68701;DHT22;55682;51.114;5.882;2023-12-29T14:40:29;11.96;86.68
68701;DHT22;55682;51.114;5.882;2023-12-29T14:42:55;11.99;86.51
68701;DHT22;55682;51.114;5.882;2023-12-29T14:45:20;12.06;85.96
68701;DHT22;55682;51.114;5.882;2023-12-29T14:47:46;12.16;84.90
68701;DHT22;55682;51.114;5.882;2023-12-29T14:50:14;12.07;85.15
68701;DHT22;55682;51.114;5.882;2023-12-29T14:52:40;12.08;83.84
68701;DHT22;55682;51.114;5.882;2023-12-29T14:55:06;12.17;84.25
68701;DHT22;55682;51.114;5.882;2023-12-29T14:57:31;12.20;84.01
68701;DHT22;55682;51.114;5.882;2023-12-29T14:59:57;12.28;83.25
68701;DHT22;55682;51.114;5.882;2023-12-29T15:02:22;12.21;83.73
68701;DHT22;55682;51.114;5.882;2023-12-29T15:04:48;12.21;83.68
68701;DHT22;55682;51.114;5.882;2023-12-29T15:07:15;12.10;84.51
68701;DHT22;55682;51.114;5.882;2023-12-29T15:09:41;12.03;84.83
68701;DHT22;55682;51.114;5.882;2023-12-29T15:12:07;12.07;85.16
68701;DHT22;55682;51.114;5.882;2023-12-29T15:14:33;12.00;85.88
68701;DHT22;55682;51.114;5.882;2023-12-29T15:16:58;11.98;85.85
68701;DHT22;55682;51.114;5.882;2023-12-29T15:19:24;11.98;85.85
68701;DHT22;55682;51.114;5.882;2023-12-29T15:21:49;11.96;86.22
68701;DHT22;55682;51.114;5.882;2023-12-29T15:24:22;11.96;86.60
68701;DHT22;55682;51.114;5.882;2023-12-29T15:26:48;11.91;86.93
68701;DHT22;55682;51.114;5.882;2023-12-29T15:29:13;11.87;86.95
68701;DHT22;55682;51.114;5.882;2023-12-29T15:31:43;11.96;86.84
68701;DHT22;55682;51.114;5.882;2023-12-29T15:34:12;11.87;87.45
68701;DHT22;55682;51.114;5.882;2023-12-29T15:36:38;11.91;87.49
68701;DHT22;55682;51.114;5.882;2023-12-29T15:39:04;11.78;88.33
68701;DHT22;55682;51.114;5.882;2023-12-29T15:41:33;11.59;88.77
68701;DHT22;55682;51.114;5.882;2023-12-29T15:43:59;11.62;88.63
68701;DHT22;55682;51.114;5.882;2023-12-29T15:46:24;11.42;89.83
68701;DHT22;55682;51.114;5.882;2023-12-29T15:48:51;11.51;90.15